Time;durP1;ratioP1;P1;durP2;ratioP2;P2;SDS_P1;SDS_P2;PMS_P1;PMS_P2;Temp;Humidity;BMP_temperature;BMP_pressure;BME280_temperature;BME280_humidity;BME280_pressure;Samples;Min_cycle;Max_cycle;Signal;HPM_P1;HPM_P2
2021/04/27 00:00:13;;;;;;;4.38;2.58;;;;;;;4.44;63.96;95365.16;1036567;28;20464;-60
2021/04/27 00:00:44;;;;;;;6.22;2.53;;;;;;;4.44;63.61;95364.28;1036449;28;20502;-61
2021/04/27 00:01:15;;;;;;;5.50;2.13;;;;;;;4.44;63.70;95364.28;1032390;28;20448;-61
2021/04/27 00:01:46;;;;;;;6.00;2.90;;;;;;;4.43;63.29;95366.09;1028448;28;20019;-61
2021/04/27 00:02:17;;;;;;;7.03;2.67;;;;;;;4.43;63.50;95360.03;1036583;28;20076;-61
2021/04/27 00:02:48;;;;;;;6.82;2.70;;;;;;;4.42;63.82;95363.63;1028403;28;20412;-61
2021/04/27 00:03:19;;;;;;;6.30;3.38;;;;;;;4.41;63.99;95362.81;1032324;28;20018;-60
2021/04/27 00:03:50;;;;;;;6.13;2.42;;;;;;;4.41;63.74;95356.75;1028125;28;20023;-61
2021/04/27 00:04:20;;;;;;;6.68;2.60;;;;;;;4.40;63.70;95357.69;1032390;28;20143;-61
2021/04/27 00:04:51;;;;;;;5.15;2.47;;;;;;;4.36;63.82;95351.09;1036407;28;20022;-61
2021/04/27 00:05:22;;;;;;;6.30;2.65;;;;;;;4.39;63.81;95358.66;1028275;28;20504;-60
2021/04/27 00:05:53;;;;;;;6.25;3.22;;;;;;;4.28;63.51;95342.16;1028346;28;20492;-61
2021/04/27 00:06:24;;;;;;;4.50;2.50;;;;;;;4.38;63.23;95351.78;1036576;28;20132;-61
2021/04/27 00:06:55;;;;;;;7.00;3.15;;;;;;;4.38;63.41;95352.59;1036493;28;20406;-61
2021/04/27 00:07:26;;;;;;;6.55;2.72;;;;;;;4.38;63.67;95351.78;1032330;28;20054;-62
2021/04/27 00:07:56;;;;;;;6.65;2.92;;;;;;;4.36;63.81;95354.56;1032428;28;20022;-60
2021/04/27 00:08:28;;;;;;;6.50;3.33;;;;;;;4.34;64.04;95353.88;1036463;28;20021;-62
2021/04/27 00:08:59;;;;;;;5.43;2.58;;;;;;;4.34;64.13;95354.69;1032314;28;20022;-60
2021/04/27 00:09:30;;;;;;;5.07;2.85;;;;;;;4.33;64.27;95354.84;1032356;28;20014;-62
2021/04/27 00:10:01;;;;;;;4.88;2.72;;;;;;;4.31;64.44;95357.63;1032374;28;20116;-60
2021/04/27 00:10:32;;;;;;;6.95;2.63;;;;;;;4.34;64.27;95352.06;1032400;28;20033;-62
2021/04/27 00:11:02;;;;;;;7.10;3.10;;;;;;;4.33;64.61;95354.84;1032407;28;20451;-60
2021/04/27 00:11:34;;;;;;;5.28;2.63;;;;;;;4.31;64.49;95356.81;1035411;28;20024;-59
2021/04/27 00:12:05;;;;;;;6.85;3.13;;;;;;;4.29;64.52;95343.81;1040202;28;20025;-59
2021/04/27 00:12:36;;;;;;;9.10;3.13;;;;;;;4.28;64.63;95349.22;1032349;28;20113;-60
2021/04/27 00:13:07;;;;;;;5.32;2.72;;;;;;;4.25;64.79;95353.00;1032381;28;20480;-60
2021/04/27 00:13:38;;;;;;;7.72;2.72;;;;;;;4.23;64.66;95349.69;1024085;29;20122;-61
2021/04/27 00:14:09;;;;;;;7.93;2.40;;;;;;;4.14;65.17;95335.66;1032233;28;20408;-60
2021/04/27 00:14:40;;;;;;;11.15;3.05;;;;;;;4.23;65.11;95349.69;1032358;28;20019;-61
2021/04/27 00:15:14;;;;;;;5.78;2.65;;;;;;;4.23;64.62;95354.97;1032433;28;20026;-60
2021/04/27 00:15:45;;;;;;;6.25;2.92;;;;;;;4.21;65.02;95349.00;1036419;28;20030;-59
2021/04/27 00:16:16;;;;;;;4.55;2.22;;;;;;;4.22;64.38;95350.66;1024374;28;20393;-61
2021/04/27 00:16:47;;;;;;;4.72;2.78;;;;;;;4.21;64.62;95356.88;1032365;28;20027;-60
2021/04/27 00:17:18;;;;;;;5.20;2.42;;;;;;;4.11;64.43;95338.59;1032419;28;20030;-62
2021/04/27 00:17:49;;;;;;;8.25;3.47;;;;;;;4.20;64.61;95355.25;1032315;28;20046;-61
2021/04/27 00:18:20;;;;;;;6.70;2.88;;;;;;;4.25;64.50;95358.25;1036405;28;20371;-61
2021/04/27 00:18:51;;;;;;;8.30;3.13;;;;;;;4.25;64.65;95358.25;1032301;28;20026;-61
2021/04/27 00:19:22;;;;;;;5.78;2.85;;;;;;;4.26;64.29;95353.81;1028294;28;20081;-62
2021/04/27 00:19:53;;;;;;;6.93;2.80;;;;;;;4.27;64.52;95355.47;1036346;28;20026;-61
2021/04/27 00:20:24;;;;;;;7.05;2.63;;;;;;;4.27;64.78;95351.03;1032203;28;20542;-61
2021/04/27 00:20:55;;;;;;;5.88;2.60;;;;;;;4.29;64.63;95354.34;1036388;28;20032;-61
2021/04/27 00:21:26;;;;;;;5.88;2.95;;;;;;;4.27;64.43;95353.66;1032375;28;20025;-60
2021/04/27 00:21:57;;;;;;;5.35;2.72;;;;;;;4.26;64.49;95357.25;1036435;28;20021;-61
2021/04/27 00:22:28;;;;;;;4.53;2.72;;;;;;;4.25;64.83;95360.88;1032168;28;20022;-61
2021/04/27 00:22:59;;;;;;;7.35;2.63;;;;;;;4.23;64.55;95349.69;1036430;28;20029;-61
2021/04/27 00:23:30;;;;;;;5.82;2.58;;;;;;;4.24;64.87;95358.41;1044424;28;20608;-59
2021/04/27 00:24:01;;;;;;;5.85;2.97;;;;;;;4.22;64.36;95355.91;1032269;28;20077;-61
2021/04/27 00:24:32;;;;;;;5.15;2.20;;;;;;;4.21;64.34;95351.63;1028193;28;20109;-60
2021/04/27 00:25:04;;;;;;;7.00;2.63;;;;;;;4.21;64.28;95354.25;1036505;28;20083;-59
2021/04/27 00:25:35;;;;;;;5.82;2.65;;;;;;;4.16;64.61;95348.63;1032272;28;20019;-61
2021/04/27 00:26:06;;;;;;;4.95;3.22;;;;;;;4.11;64.47;95340.38;1028318;28;20046;-60
2021/04/27 00:26:37;;;;;;;6.13;2.45;;;;;;;4.14;64.48;95351.44;1028187;28;20101;-60
2021/04/27 00:27:08;;;;;;;6.43;2.78;;;;;;;4.14;64.42;95350.59;1032267;28;20019;-60
2021/04/27 00:27:39;;;;;;;6.35;2.53;;;;;;;4.13;64.53;95338.44;1028269;28;20026;-60
2021/04/27 00:28:10;;;;;;;7.07;2.90;;;;;;;4.13;64.39;95348.94;1036355;28;20121;-60
2021/04/27 00:28:41;;;;;;;6.53;2.90;;;;;;;4.11;64.55;95343.84;1032275;28;20511;-61
2021/04/27 00:29:12;;;;;;;5.63;2.42;;;;;;;4.13;64.58;95354.22;1028245;28;20034;-60
2021/04/27 00:29:43;;;;;;;5.28;2.75;;;;;;;4.09;64.63;95345.81;1028430;28;20109;-61
2021/04/27 00:30:15;;;;;;;4.40;2.58;;;;;;;4.08;64.72;95345.94;1032327;28;20057;-61
2021/04/27 00:30:46;;;;;;;5.18;2.50;;;;;;;4.06;64.63;95347.88;1036313;28;20045;-60
2021/04/27 00:31:16;;;;;;;5.38;2.83;;;;;;;4.07;64.67;95344.28;1032257;28;20400;-61
2021/04/27 00:31:47;;;;;;;5.43;2.85;;;;;;;4.05;65.12;95351.50;1032345;28;20026;-61
2021/04/27 00:32:18;;;;;;;8.38;3.10;;;;;;;4.04;64.99;95352.47;1036298;28;20662;-61
2021/04/27 00:32:50;;;;;;;5.40;2.70;;;;;;;4.01;64.88;95350.97;1028253;28;20181;-61
2021/04/27 00:33:21;;;;;;;6.50;2.90;;;;;;;4.01;64.99;95347.53;1036243;28;20026;-61
2021/04/27 00:33:51;;;;;;;8.48;2.33;;;;;;;4.01;65.29;95347.53;1040253;28;20033;-61
2021/04/27 00:34:22;;;;;;;5.03;2.67;;;;;;;4.00;65.50;95343.25;1036330;28;20080;-61
2021/04/27 00:34:53;;;;;;;7.38;2.63;;;;;;;3.97;65.54;95344.34;1036381;28;20026;-60
2021/04/27 00:35:25;;;;;;;7.10;2.50;;;;;;;3.97;65.34;95339.94;1032233;28;20014;-60
2021/04/27 00:35:56;;;;;;;6.00;2.50;;;;;;;3.97;65.56;95346.97;1032277;28;20023;-60
2021/04/27 00:36:27;;;;;;;6.25;2.72;;;;;;;3.97;65.41;95344.34;1024294;28;20027;-60
2021/04/27 00:36:58;;;;;;;7.03;3.05;;;;;;;3.95;65.31;95344.53;1028330;28;20158;-61
2021/04/27 00:37:29;;;;;;;4.65;2.60;;;;;;;3.94;65.27;95344.69;1032205;28;20039;-61
2021/04/27 00:38:00;;;;;;;7.13;2.70;;;;;;;3.95;65.25;95346.31;1036357;28;20508;-61
2021/04/27 00:38:32;;;;;;;6.40;3.08;;;;;;;3.97;65.14;95346.97;1032265;28;20113;-61
2021/04/27 00:39:04;;;;;;;5.03;2.63;;;;;;;3.96;65.08;95348.78;1032288;28;20408;-60
2021/04/27 00:39:35;;;;;;;5.57;2.60;;;;;;;4.00;65.11;95346.69;1028171;28;20030;-61
2021/04/27 00:40:07;;;;;;;9.77;3.58;;;;;;;3.96;65.40;95348.78;1036340;28;20087;-60
2021/04/27 00:40:38;;;;;;;4.32;2.65;;;;;;;3.93;65.22;95343.81;1040414;28;20027;-61
2021/04/27 00:41:10;;;;;;;6.38;2.58;;;;;;;3.94;65.17;95342.88;1028221;28;20025;-60
2021/04/27 00:41:40;;;;;;;7.05;2.78;;;;;;;3.93;65.38;95343.81;1032298;28;20416;-60
2021/04/27 00:42:11;;;;;;;5.78;2.58;;;;;;;3.97;65.20;95349.59;1024301;28;20054;-60
2021/04/27 00:42:46;;;;;;;5.63;2.95;;;;;;;4.03;65.17;95341.13;1036250;28;20153;-61
2021/04/27 00:43:17;;;;;;;6.00;2.88;;;;;;;4.03;65.20;95340.31;1032226;28;20489;-61
2021/04/27 00:43:48;;;;;;;5.40;2.50;;;;;;;4.03;65.26;95342.94;1040028;28;20034;-60
2021/04/27 00:44:19;;;;;;;4.28;2.22;;;;;;;4.01;65.20;95340.47;1036382;28;20065;-62
2021/04/27 00:44:50;;;;;;;12.65;2.80;;;;;;;4.00;65.25;95345.88;1032227;28;20464;-60
2021/04/27 00:45:23;;;;;;;5.00;2.20;;;;;;;4.01;65.66;95337.03;1040867;28;20627;-62
2021/04/27 00:45:54;;;;;;;4.20;2.15;;;;;;;3.97;65.73;95333.84;1040377;28;20022;-60
2021/04/27 00:46:25;;;;;;;5.47;3.13;;;;;;;3.96;65.84;95338.28;1032276;28;20117;-60
2021/04/27 00:46:56;;;;;;;5.10;2.50;;;;;;;3.95;66.09;95336.66;1036252;28;20562;-60
2021/04/27 00:47:27;;;;;;;6.30;2.63;;;;;;;3.95;65.92;95341.91;1032119;28;20033;-61
2021/04/27 00:47:58;;;;;;;4.93;2.67;;;;;;;3.94;65.81;95336.78;1040314;28;20025;-61
2021/04/27 00:48:29;;;;;;;4.25;2.50;;;;;;;3.92;65.93;95334.31;1028155;28;20022;-62
2021/04/27 00:49:00;;;;;;;6.30;2.85;;;;;;;3.93;65.71;95338.56;1028160;28;20018;-60
2021/04/27 00:49:31;;;;;;;5.63;2.50;;;;;;;3.95;65.59;95331.41;1036243;28;20072;-60
2021/04/27 00:50:05;;;;;;;6.97;2.72;;;;;;;3.97;65.83;95339.09;1036295;28;20072;-60
2021/04/27 00:50:38;;;;;;;7.43;2.65;;;;;;;3.93;65.93;95338.56;1028169;28;20030;-60
2021/04/27 00:51:08;;;;;;;4.82;2.53;;;;;;;3.93;65.83;95337.75;1032224;28;20170;-60
2021/04/27 00:51:39;;;;;;;7.63;2.67;;;;;;;3.91;66.05;95332.66;1036259;28;20480;-61
2021/04/27 00:52:10;;;;;;;5.70;2.30;;;;;;;3.88;66.57;95334.75;1040293;28;20044;-60
2021/04/27 00:52:42;;;;;;;6.85;2.60;;;;;;;3.87;66.69;95335.75;1036237;28;20068;-60
2021/04/27 00:53:13;;;;;;;5.47;2.60;;;;;;;3.85;66.97;95337.66;1032190;28;20022;-60
2021/04/27 00:53:44;;;;;;;4.95;2.83;;;;;;;3.85;66.93;95335.03;1027906;28;20035;-60
2021/04/27 00:54:15;;;;;;;7.82;2.67;;;;;;;3.84;67.10;95336.03;1032158;28;20034;-60
2021/04/27 00:54:46;;;;;;;6.40;2.67;;;;;;;3.83;66.81;95335.22;1028236;28;20126;-61
2021/04/27 00:55:17;;;;;;;7.47;2.70;;;;;;;3.81;66.94;95337.16;1028346;28;20030;-60
2021/04/27 00:55:48;;;;;;;5.40;2.55;;;;;;;3.84;66.88;95333.41;1036237;28;20021;-61
2021/04/27 00:56:21;;;;;;;6.68;2.95;;;;;;;3.83;66.81;95337.00;1032197;28;20022;-60
2021/04/27 00:56:52;;;;;;;7.78;2.45;;;;;;;3.81;66.81;95331.91;1032268;28;20408;-60
2021/04/27 00:57:23;;;;;;;4.55;2.60;;;;;;;3.79;66.80;95336.47;1032198;28;20022;-61
2021/04/27 00:57:54;;;;;;;6.13;2.63;;;;;;;3.80;66.85;95332.88;1028143;28;20500;-61
2021/04/27 00:58:27;;;;;;;6.45;3.00;;;;;;;3.78;66.80;95335.66;1024230;28;20064;-60
2021/04/27 00:58:58;;;;;;;7.63;3.00;;;;;;;3.77;66.83;95333.19;1028086;28;20023;-59
2021/04/27 00:59:29;;;;;;;6.18;2.78;;;;;;;3.80;66.72;95337.28;1032206;28;20019;-61
2021/04/27 00:59:59;;;;;;;7.20;2.90;;;;;;;3.78;66.64;95340.91;1032082;28;20126;-59
2021/04/27 01:00:33;;;;;;;6.00;2.70;;;;;;;3.78;66.42;95327.78;1040299;28;20414;-61
2021/04/27 01:01:03;;;;;;;6.40;2.60;;;;;;;3.80;66.55;95332.88;1036296;28;20585;-60
2021/04/27 01:01:34;;;;;;;8.07;2.28;;;;;;;3.78;66.80;95333.03;1032224;28;20064;-60
2021/04/27 01:02:05;;;;;;;7.38;2.80;;;;;;;3.82;66.55;95338.00;1028090;28;20046;-60
2021/04/27 01:02:36;;;;;;;9.02;2.70;;;;;;;3.81;66.41;95336.34;1032150;28;20084;-61
2021/04/27 01:03:07;;;;;;;9.07;2.88;;;;;;;3.78;66.86;95334.84;1032198;28;20026;-60
2021/04/27 01:03:38;;;;;;;4.85;2.60;;;;;;;3.78;67.40;95340.91;1036120;28;20022;-60
2021/04/27 01:04:09;;;;;;;6.10;2.85;;;;;;;3.77;67.25;95338.44;1032020;28;20057;-61
2021/04/27 01:04:40;;;;;;;6.32;3.05;;;;;;;3.71;66.91;95325.88;1028162;28;20030;-61
2021/04/27 01:05:13;;;;;;;8.10;3.00;;;;;;;3.76;66.95;95337.63;1032250;28;20026;-61
2021/04/27 01:05:44;;;;;;;4.43;2.60;;;;;;;3.72;66.68;95327.53;1028206;28;20517;-60
2021/04/27 01:06:17;;;;;;;6.45;2.50;;;;;;;3.78;66.53;95335.66;1032108;28;20026;-60
2021/04/27 01:06:49;;;;;;;7.57;3.08;;;;;;;3.78;66.91;95342.72;1028140;28;20033;-62
2021/04/27 01:07:21;;;;;;;5.53;2.65;;;;;;;3.50;66.82;95287.63;1028184;28;20397;-60
2021/04/27 01:08:04;;;;;;;4.75;2.63;;;;;;;3.78;66.86;95332.22;1036200;28;20021;-62
2021/04/27 01:08:55;;;;;;;23.15;3.60;;;;;;;3.78;66.76;95335.66;1032093;28;20438;-60
2021/04/27 01:09:37;;;;;;;5.75;2.97;;;;;;;3.77;67.23;95341.06;1024033;28;20019;-59
2021/04/27 01:10:11;;;;;;;4.60;2.30;;;;;;;3.75;66.94;95335.13;1028376;28;20053;-60
2021/04/27 01:10:51;;;;;;;6.65;2.78;;;;;;;3.73;66.98;95342.34;1028099;28;20022;-60
2021/04/27 01:11:32;;;;;;;7.72;3.33;;;;;;;3.73;67.07;95342.34;1025812;28;20584;-61
2021/04/27 01:12:07;;;;;;;6.40;3.05;;;;;;;3.67;67.96;95341.13;1028111;28;20129;-60
2021/04/27 01:12:41;;;;;;;6.13;3.00;;;;;;;3.67;67.62;95338.50;1028012;28;20522;-61
2021/04/27 01:13:27;;;;;;;13.65;3.78;;;;;;;3.72;67.16;95340.69;1032044;28;20050;-61
2021/04/27 01:14:03;;;;;;;6.43;3.03;;;;;;;3.58;67.91;95326.25;1035176;28;20050;-61
2021/04/27 01:14:36;;;;;;;8.02;2.80;;;;;;;3.72;67.38;95335.44;1035388;28;20021;-60
2021/04/27 01:15:10;;;;;;;9.55;3.05;;;;;;;3.75;66.94;95338.56;1028092;28;20030;-60
2021/04/27 01:15:41;;;;;;;9.38;3.08;;;;;;;3.78;66.47;95334.84;1036171;28;20112;-60
2021/04/27 01:16:12;;;;;;;5.53;2.63;;;;;;;3.78;66.49;95337.47;1024172;28;20027;-60
2021/04/27 01:16:47;;;;;;;6.63;2.95;;;;;;;3.81;66.66;95337.16;1032117;28;20101;-60
2021/04/27 01:17:20;;;;;;;6.50;3.10;;;;;;;3.80;66.44;95335.50;1036228;28;20145;-60
2021/04/27 01:17:51;;;;;;;7.88;3.28;;;;;;;3.79;66.64;95325.97;1028109;28;20374;-61
2021/04/27 01:18:21;;;;;;;4.50;2.33;;;;;;;3.76;66.78;95335.00;1036197;28;20061;-60
2021/04/27 01:18:53;;;;;;;6.38;2.75;;;;;;;3.73;67.00;95332.66;1032239;28;20038;-61
2021/04/27 01:19:27;;;;;;;7.25;3.13;;;;;;;3.75;66.69;95322.81;1029594;28;20019;-61
2021/04/27 01:20:16;;;;;;;7.93;3.28;;;;;;;3.77;67.02;95322.69;1037939;28;20049;-60
2021/04/27 01:20:48;;;;;;;5.05;2.83;;;;;;;3.75;67.47;95317.56;1029744;28;20027;-61
2021/04/27 01:21:20;;;;;;;7.00;2.90;;;;;;;3.70;67.11;95319.81;1030285;28;20481;-62
2021/04/27 01:21:51;;;;;;;7.68;3.00;;;;;;;3.63;67.61;95324.00;1029974;28;20535;-61
2021/04/27 01:22:29;;;;;;;5.97;2.78;;;;;;;3.66;66.90;95321.09;1025988;28;20021;-60
2021/04/27 01:23:12;;;;;;;5.28;2.60;;;;;;;3.71;66.76;95334.63;1030471;28;20034;-61
2021/04/27 01:23:57;;;;;;;7.45;2.53;;;;;;;3.74;66.66;95321.16;1034262;28;20015;-61
2021/04/27 01:24:29;;;;;;;7.40;3.03;;;;;;;3.73;66.64;95319.53;1038865;28;20101;-61
2021/04/27 01:25:01;;;;;;;5.57;3.08;;;;;;;3.74;66.67;95330.84;1034730;28;20049;-61
2021/04/27 01:25:49;;;;;;;5.22;2.85;;;;;;;3.68;66.67;95329.66;1037016;28;20169;-61
2021/04/27 01:26:20;;;;;;;6.22;2.83;;;;;;;3.67;67.14;95327.97;1037053;28;20018;-61
2021/04/27 01:26:52;;;;;;;8.25;2.58;;;;;;;3.66;67.00;95328.13;1036308;28;20026;-60
2021/04/27 01:27:24;;;;;;;6.07;3.00;;;;;;;3.67;66.96;95327.16;1040108;28;20044;-61
2021/04/27 01:27:56;;;;;;;7.43;2.90;;;;;;;3.65;67.35;95329.13;1036169;28;20041;-60
2021/04/27 01:28:28;;;;;;;6.93;3.10;;;;;;;3.64;67.22;95320.44;1040261;28;20024;-59
2021/04/27 01:29:00;;;;;;;6.80;3.10;;;;;;;3.64;67.50;95322.22;1036131;28;20022;-63
2021/04/27 01:29:30;;;;;;;5.57;2.72;;;;;;;3.40;67.70;95294.75;1032049;28;20527;-60
2021/04/27 01:30:01;;;;;;;8.75;3.03;;;;;;;3.57;68.34;95319.34;1036306;28;20017;-63
2021/04/27 01:30:37;;;;;;;9.93;3.10;;;;;;;3.57;67.66;95322.81;1036132;28;20022;-60
2021/04/27 01:31:09;;;;;;;6.65;3.28;;;;;;;3.61;67.67;95317.28;1036211;28;20022;-61
2021/04/27 01:31:40;;;;;;;9.35;2.95;;;;;;;3.59;67.31;95320.06;1036125;28;20425;-62
2021/04/27 01:32:11;;;;;;;8.82;2.78;;;;;;;3.55;67.60;95319.53;1036256;28;20018;-61
2021/04/27 01:32:42;;;;;;;8.07;2.88;;;;;;;3.55;67.84;95314.28;1036120;28;20101;-60
2021/04/27 01:33:15;;;;;;;6.07;2.90;;;;;;;3.55;68.10;95314.28;1036022;28;20556;-62
2021/04/27 01:33:46;;;;;;;8.23;3.15;;;;;;;3.54;67.65;95311.78;1039955;28;20025;-61
2021/04/27 01:34:22;;;;;;;6.40;3.05;;;;;;;3.52;67.46;95313.75;1036107;28;20046;-60
2021/04/27 01:34:53;;;;;;;7.07;3.28;;;;;;;3.51;67.61;95312.06;1036222;28;20514;-61
2021/04/27 01:35:24;;;;;;;12.40;3.50;;;;;;;3.50;67.87;95313.88;1036027;28;20025;-60
2021/04/27 01:35:56;;;;;;;5.78;3.08;;;;;;;3.49;67.92;95311.41;1028028;28;20081;-60
2021/04/27 01:36:27;;;;;;;7.28;3.20;;;;;;;3.52;67.79;95311.94;1028038;28;20576;-61
2021/04/27 01:36:58;;;;;;;7.38;3.28;;;;;;;3.55;67.65;95314.28;1028094;28;20118;-61
2021/04/27 01:37:29;;;;;;;6.05;3.15;;;;;;;3.55;67.57;95309.03;1028057;28;20022;-60
2021/04/27 01:38:00;;;;;;;7.00;3.00;;;;;;;3.54;67.71;95311.78;1028221;28;20516;-60
2021/04/27 01:38:31;;;;;;;13.52;3.20;;;;;;;3.52;67.94;95311.94;1024155;29;20602;-60
2021/04/27 01:39:05;;;;;;;6.47;3.10;;;;;;;3.52;67.81;95309.31;1031934;28;20198;-60
2021/04/27 01:39:36;;;;;;;8.38;3.28;;;;;;;3.49;67.73;95303.53;1031853;28;20026;-61
2021/04/27 01:40:09;;;;;;;6.35;2.85;;;;;;;3.48;67.94;95309.75;1028005;28;20027;-61
2021/04/27 01:40:40;;;;;;;6.18;3.53;;;;;;;3.52;67.40;95301.44;1028018;28;20018;-62
2021/04/27 01:41:11;;;;;;;9.90;3.10;;;;;;;3.51;67.06;95307.66;1032021;28;20028;-61
2021/04/27 01:41:42;;;;;;;8.75;3.15;;;;;;;3.51;67.20;95315.53;1035949;28;20476;-60
2021/04/27 01:42:13;;;;;;;8.38;2.92;;;;;;;3.51;67.04;95307.66;1032039;28;20019;-61
2021/04/27 01:42:45;;;;;;;6.32;2.67;;;;;;;3.49;66.96;95308.78;1031968;28;20512;-60
2021/04/27 01:43:17;;;;;;;6.88;2.30;;;;;;;3.47;67.27;95310.75;1028065;28;20027;-61
2021/04/27 01:43:49;;;;;;;8.30;3.42;;;;;;;3.45;66.88;95308.25;1027574;28;20027;-60
2021/04/27 01:44:20;;;;;;;7.35;3.03;;;;;;;3.47;66.89;95310.75;1028006;28;20061;-61
2021/04/27 01:44:50;;;;;;;5.50;3.13;;;;;;;3.46;67.45;95307.25;1028009;28;20033;-59
2021/04/27 01:45:22;;;;;;;9.15;3.30;;;;;;;3.46;68.00;95311.69;1031978;28;20109;-61
2021/04/27 01:45:57;;;;;;;9.38;3.15;;;;;;;3.45;67.51;95308.25;1031925;28;20460;-61
2021/04/27 01:46:28;;;;;;;9.27;2.83;;;;;;;3.42;67.74;95313.78;1031953;28;20024;-61
2021/04/27 01:46:59;;;;;;;5.40;2.58;;;;;;;3.39;67.69;95312.28;1032058;28;20037;-61
2021/04/27 01:47:30;;;;;;;8.00;3.38;;;;;;;3.39;67.66;95311.47;1032097;28;20396;-61
2021/04/27 01:48:01;;;;;;;7.38;2.50;;;;;;;3.39;67.62;95311.47;1035848;28;20013;-63
2021/04/27 01:48:33;;;;;;;5.47;2.65;;;;;;;3.36;67.76;95302.09;1032023;28;20022;-62
2021/04/27 01:49:04;;;;;;;6.43;3.05;;;;;;;3.30;67.69;95293.97;1036100;28;20013;-61
2021/04/27 01:49:36;;;;;;;8.23;3.00;;;;;;;3.36;67.84;95304.72;1032018;28;20076;-61
2021/04/27 01:50:09;;;;;;;6.20;2.72;;;;;;;3.35;67.71;95305.69;1035920;28;20041;-59
2021/04/27 01:50:41;;;;;;;5.78;2.95;;;;;;;3.32;68.00;95303.34;1036127;28;20025;-60
2021/04/27 01:51:13;;;;;;;7.45;3.30;;;;;;;3.32;67.97;95308.59;1032029;28;20088;-61
2021/04/27 01:51:44;;;;;;;6.57;3.13;;;;;;;3.31;68.21;95295.63;1031956;28;20022;-60
2021/04/27 01:52:15;;;;;;;5.45;2.90;;;;;;;3.25;68.81;95290.97;1031876;28;20018;-61
2021/04/27 01:52:47;;;;;;;8.80;2.88;;;;;;;3.33;68.06;95304.19;1027914;28;20030;-60
2021/04/27 01:53:19;;;;;;;9.43;3.03;;;;;;;3.29;68.36;95303.66;1032053;28;20019;-61
2021/04/27 01:53:50;;;;;;;5.60;2.60;;;;;;;3.30;68.04;95304.47;1035920;28;20022;-60
2021/04/27 01:54:29;;;;;;;8.48;2.88;;;;;;;3.26;68.41;95305.72;1031895;28;20022;-61
2021/04/27 01:55:00;;;;;;;6.57;3.00;;;;;;;3.25;68.43;95302.28;1036107;28;20586;-60
2021/04/27 01:55:30;;;;;;;6.47;2.60;;;;;;;3.23;68.69;95298.16;1040116;28;20116;-60
2021/04/27 01:56:01;;;;;;;9.50;3.50;;;;;;;3.25;68.59;95301.47;1031914;28;20045;-60
2021/04/27 01:56:32;;;;;;;7.43;2.80;;;;;;;3.24;68.56;95300.66;1031853;28;20121;-61
2021/04/27 01:57:03;;;;;;;9.18;3.05;;;;;;;3.26;68.56;95303.94;1027968;28;20030;-59
2021/04/27 01:57:34;;;;;;;5.97;2.72;;;;;;;3.24;68.53;95299.81;1027993;28;20077;-60
2021/04/27 01:58:05;;;;;;;6.53;3.10;;;;;;;3.25;68.46;95299.66;1036080;28;20022;-60
2021/04/27 01:58:37;;;;;;;5.20;2.75;;;;;;;3.23;68.93;95300.78;1035807;28;20029;-60
2021/04/27 01:59:08;;;;;;;9.82;2.97;;;;;;;3.22;68.78;95305.19;1027959;28;20015;-60
2021/04/27 01:59:38;;;;;;;7.75;2.60;;;;;;;3.19;68.83;95303.69;1027965;28;20456;-61
2021/04/27 02:00:11;;;;;;;7.25;3.35;;;;;;;3.15;69.55;95302.34;1031965;28;20014;-61
2021/04/27 02:00:42;;;;;;;5.93;2.92;;;;;;;3.12;69.78;95292.16;1031820;28;20447;-60
2021/04/27 02:01:13;;;;;;;8.75;2.88;;;;;;;3.12;69.76;95292.16;1032030;28;20011;-60
2021/04/27 02:01:44;;;;;;;4.78;2.65;;;;;;;3.13;69.27;95298.22;1031964;28;20011;-60
2021/04/27 02:02:15;;;;;;;7.15;3.10;;;;;;;3.10;69.49;95296.72;1031957;28;20015;-59
2021/04/27 02:02:46;;;;;;;8.80;3.30;;;;;;;3.10;69.65;95294.09;1040033;28;20499;-61
2021/04/27 02:03:17;;;;;;;6.68;3.25;;;;;;;3.09;69.48;95296.88;1036088;28;20018;-61
2021/04/27 02:03:48;;;;;;;4.68;2.88;;;;;;;3.08;69.75;95301.25;1035718;28;20022;-60
2021/04/27 02:04:23;;;;;;;6.90;3.20;;;;;;;3.06;69.96;95299.78;1036005;28;20014;-60
2021/04/27 02:04:55;;;;;;;9.05;3.10;;;;;;;3.01;70.68;95300.19;1035865;28;20474;-61
2021/04/27 02:05:26;;;;;;;7.50;3.20;;;;;;;3.02;69.74;95292.19;1027933;28;20074;-60
2021/04/27 02:05:57;;;;;;;8.90;3.22;;;;;;;3.04;70.50;95292.03;1031919;28;20133;-60
2021/04/27 02:06:28;;;;;;;7.20;3.03;;;;;;;3.02;70.67;95297.44;1027913;28;20015;-60
2021/04/27 02:06:59;;;;;;;8.57;3.85;;;;;;;3.02;70.31;95299.25;1027821;28;20026;-60
2021/04/27 02:07:33;;;;;;;6.00;3.10;;;;;;;2.96;70.58;95291.94;1035996;28;20022;-61
2021/04/27 02:08:04;;;;;;;6.90;3.33;;;;;;;3.00;70.25;95295.94;1031955;28;20419;-60
2021/04/27 02:08:37;;;;;;;7.00;2.92;;;;;;;3.02;70.75;95296.63;1035996;28;20018;-61
2021/04/27 02:09:10;;;;;;;6.03;3.00;;;;;;;3.00;70.99;95298.56;1027758;28;20078;-60
2021/04/27 02:09:41;;;;;;;5.80;3.05;;;;;;;2.97;70.60;95298.84;1031953;28;20041;-62
2021/04/27 02:10:12;;;;;;;5.45;2.97;;;;;;;2.82;71.05;95280.13;1027956;28;20022;-60
2021/04/27 02:10:43;;;;;;;8.23;3.08;;;;;;;2.90;71.23;95295.16;1031917;28;20690;-60
2021/04/27 02:11:14;;;;;;;8.90;2.80;;;;;;;2.91;71.29;95289.78;1024425;28;20024;-60
2021/04/27 02:11:46;;;;;;;6.50;2.80;;;;;;;2.88;71.44;95297.91;1035920;28;20105;-60
2021/04/27 02:12:16;;;;;;;7.85;3.28;;;;;;;2.89;71.48;95306.59;1040116;28;20013;-60
2021/04/27 02:12:50;;;;;;;6.75;3.00;;;;;;;2.86;71.73;95302.50;1031901;28;20046;-62
2021/04/27 02:13:21;;;;;;;7.53;3.35;;;;;;;2.85;71.62;95292.13;1031777;28;20030;-61
2021/04/27 02:13:52;;;;;;;6.43;2.95;;;;;;;2.83;71.84;95303.59;1027726;28;20392;-60
2021/04/27 02:14:27;;;;;;;7.32;3.58;;;;;;;2.86;71.73;95304.25;1031916;28;20014;-62
2021/04/27 02:14:57;;;;;;;6.55;3.15;;;;;;;2.86;71.54;95292.00;1039981;28;20017;-61
2021/04/27 02:15:28;;;;;;;7.47;3.45;;;;;;;2.87;71.30;95298.88;1031884;28;20014;-60
2021/04/27 02:16:00;;;;;;;7.47;3.30;;;;;;;2.88;71.53;95299.72;1023887;29;20031;-61
2021/04/27 02:16:36;;;;;;;7.40;2.92;;;;;;;2.89;71.23;95296.97;1027901;28;20397;-60
2021/04/27 02:17:10;;;;;;;5.32;2.88;;;;;;;2.89;71.29;95294.34;1031850;28;20555;-59
2021/04/27 02:17:55;;;;;;;6.00;3.00;;;;;;;2.85;71.46;95297.38;1027862;28;20030;-61
2021/04/27 02:18:38;;;;;;;7.30;3.65;;;;;;;2.86;71.52;95291.16;1027903;28;20111;-60
2021/04/27 02:19:09;;;;;;;5.13;3.03;;;;;;;2.85;71.78;95290.34;1031730;28;20460;-60
2021/04/27 02:19:40;;;;;;;7.43;3.13;;;;;;;2.81;71.68;95289.81;1039980;28;20052;-61
2021/04/27 02:20:11;;;;;;;6.82;3.30;;;;;;;2.77;72.05;95296.31;1031879;28;20023;-60
2021/04/27 02:20:42;;;;;;;6.80;3.40;;;;;;;2.78;72.04;95292.69;1035973;28;20018;-61
2021/04/27 02:21:13;;;;;;;6.60;3.20;;;;;;;2.78;72.08;95289.25;1035473;28;20042;-60
2021/04/27 02:21:44;;;;;;;6.30;2.80;;;;;;;2.80;71.93;95290.78;1035705;28;20018;-60
2021/04/27 02:22:15;;;;;;;5.07;2.83;;;;;;;2.78;72.30;95295.31;1039943;28;20018;-60
2021/04/27 02:22:46;;;;;;;8.98;3.10;;;;;;;2.76;72.21;95289.41;1031886;28;20031;-61
2021/04/27 02:23:17;;;;;;;5.35;2.95;;;;;;;2.73;72.33;95292.31;1035772;28;20018;-61
2021/04/27 02:23:48;;;;;;;7.43;2.92;;;;;;;2.75;72.40;95293.00;1023564;28;20022;-60
2021/04/27 02:24:18;;;;;;;5.97;3.40;;;;;;;2.74;72.80;95288.72;1031876;28;20117;-61
2021/04/27 02:24:49;;;;;;;6.10;3.00;;;;;;;2.72;72.58;95290.69;1035942;28;20383;-61
2021/04/27 02:25:21;;;;;;;6.10;3.25;;;;;;;2.73;72.41;95296.72;1035867;28;20007;-61
2021/04/27 02:25:52;;;;;;;7.05;2.95;;;;;;;2.73;72.22;95289.69;1027897;28;20015;-61
2021/04/27 02:26:22;;;;;;;7.72;3.20;;;;;;;2.72;72.68;95297.72;1035917;28;20042;-60
2021/04/27 02:26:54;;;;;;;7.03;3.00;;;;;;;2.74;73.38;95291.34;1035979;28;20021;-60
2021/04/27 02:27:25;;;;;;;5.22;3.00;;;;;;;2.76;73.06;95289.41;1035821;28;20108;-61
2021/04/27 02:27:56;;;;;;;8.32;2.90;;;;;;;2.74;73.13;95287.91;1031762;28;20019;-62
2021/04/27 02:28:27;;;;;;;8.55;3.33;;;;;;;2.62;73.34;95274.16;1031891;28;20018;-60
2021/04/27 02:28:58;;;;;;;8.20;3.25;;;;;;;2.71;73.20;95291.63;1031721;28;20010;-60
2021/04/27 02:29:29;;;;;;;5.50;3.40;;;;;;;2.68;74.06;95285.84;1031776;28;20018;-60
2021/04/27 02:29:59;;;;;;;7.05;3.55;;;;;;;2.65;74.76;95289.59;1035800;28;20014;-58
2021/04/27 02:30:30;;;;;;;7.85;3.15;;;;;;;2.61;75.19;95288.22;1031827;28;20105;-63
2021/04/27 02:31:01;;;;;;;7.53;2.80;;;;;;;2.61;75.12;95285.59;1031852;28;20062;-60
2021/04/27 02:31:32;;;;;;;6.65;3.38;;;;;;;2.59;75.25;95285.72;1035843;28;20022;-62
2021/04/27 02:32:04;;;;;;;5.85;3.38;;;;;;;2.52;74.86;95279.41;1023806;28;20058;-60
2021/04/27 02:32:36;;;;;;;6.22;3.00;;;;;;;2.58;74.54;95291.97;1031843;28;20024;-60